Time;durP1;ratioP1;P1;durP2;ratioP2;P2;SDS_P1;SDS_P2;PMS_P1;PMS_P2;Temp;Humidity;BMP_temperature;BMP_pressure;BME280_temperature;BME280_humidity;BME280_pressure;Samples;Min_cycle;Max_cycle;Signal;HPM_P1;HPM_P2
2022/08/02 00:02:20;;;;;;;7.65;3.67;;;;;;;;;;5033298;28;20041;-65
2022/08/02 00:04:46;;;;;;;9.10;3.90;;;;;;;;;;5052727;28;20021;-64
2022/08/02 00:07:13;;;;;;;7.18;3.97;;;;;;;;;;5051629;28;20037;-63
2022/08/02 00:09:39;;;;;;;8.27;3.75;;;;;;;;;;5052697;28;20068;-64
2022/08/02 00:12:05;;;;;;;7.15;3.63;;;;;;;;;;5042512;28;20030;-65
2022/08/02 00:14:30;;;;;;;8.35;3.80;;;;;;;;;;5032752;28;20100;-65
2022/08/02 00:16:55;;;;;;;7.93;3.70;;;;;;;;;;5050622;28;20033;-65
2022/08/02 00:19:21;;;;;;;8.88;3.53;;;;;;;;;;5047616;28;20104;-65
2022/08/02 00:21:46;;;;;;;11.05;4.05;;;;;;;;;;5037940;28;20040;-64
2022/08/02 00:24:12;;;;;;;6.10;3.80;;;;;;;;;;5049030;28;20098;-64
2022/08/02 00:26:37;;;;;;;7.30;3.97;;;;;;;;;;5050110;28;20033;-64
2022/08/02 00:29:03;;;;;;;8.43;3.92;;;;;;;;;;5053021;28;20059;-64
2022/08/02 00:31:29;;;;;;;7.57;3.70;;;;;;;;;;5040054;28;20044;-64
2022/08/02 00:33:54;;;;;;;8.57;3.60;;;;;;;;;;5033095;28;20101;-64
2022/08/02 00:36:19;;;;;;;8.10;3.97;;;;;;;;;;5042970;28;20398;-63
2022/08/02 00:38:46;;;;;;;6.38;4.03;;;;;;;;;;5049333;28;20039;-65
2022/08/02 00:41:15;;;;;;;8.65;4.20;;;;;;;;;;5048121;28;20033;-64
2022/08/02 00:43:41;;;;;;;6.60;4.20;;;;;;;;;;5031406;28;20052;-65
2022/08/02 00:46:07;;;;;;;7.60;4.13;;;;;;;;;;5033097;28;20470;-65
2022/08/02 00:48:32;;;;;;;9.88;4.25;;;;;;;;;;5044881;28;20029;-65
2022/08/02 00:50:57;;;;;;;7.85;4.13;;;;;;;;;;5035238;28;20049;-64
2022/08/02 00:53:23;;;;;;;10.63;3.92;;;;;;;;;;5045459;28;20068;-64
2022/08/02 00:55:48;;;;;;;6.55;4.20;;;;;;;;;;5050119;28;20033;-65
2022/08/02 00:58:14;;;;;;;6.80;3.95;;;;;;;;;;5046604;28;20147;-64
2022/08/02 01:00:39;;;;;;;10.02;4.38;;;;;;;;;;5045251;28;20075;-65
2022/08/02 01:03:05;;;;;;;7.70;4.15;;;;;;;;;;5039653;28;20033;-64
2022/08/02 01:05:30;;;;;;;8.05;4.43;;;;;;;;;;5035190;28;20035;-65
2022/08/02 01:07:56;;;;;;;7.43;4.35;;;;;;;;;;5041722;28;20037;-65
2022/08/02 01:10:23;;;;;;;8.85;4.10;;;;;;;;;;5042267;28;20119;-64
2022/08/02 01:12:49;;;;;;;9.05;4.55;;;;;;;;;;5041965;28;20499;-65
2022/08/02 01:15:16;;;;;;;8.57;4.72;;;;;;;;;;5045123;28;20029;-65
2022/08/02 01:18:05;;;;;;;8.77;4.80;;;;;;;;;;5030786;28;20037;-66
2022/08/02 01:21:03;;;;;;;10.20;4.88;;;;;;;;;;5031740;28;20021;-65
2022/08/02 01:23:32;;;;;;;10.63;4.80;;;;;;;;;;5030275;28;20045;-65
2022/08/02 01:26:18;;;;;;;9.90;4.63;;;;;;;;;;5032312;28;20037;-64
2022/08/02 01:28:56;;;;;;;7.03;4.53;;;;;;;;;;5030867;28;20041;-64
2022/08/02 01:31:38;;;;;;;8.30;4.95;;;;;;;;;;5037877;28;20373;-64
2022/08/02 01:34:21;;;;;;;9.60;5.18;;;;;;;;;;5032067;28;20033;-63
2022/08/02 01:36:54;;;;;;;13.30;4.90;;;;;;;;;;5031080;28;20048;-64
2022/08/02 01:39:23;;;;;;;9.93;4.80;;;;;;;;;;5032244;28;20382;-64
2022/08/02 01:41:49;;;;;;;7.68;4.70;;;;;;;;;;5038308;28;20028;-65
2022/08/02 01:44:15;;;;;;;5.88;4.38;;;;;;;;;;5034586;28;20068;-64
2022/08/02 01:46:43;;;;;;;10.63;4.85;;;;;;;;;;5030511;28;20057;-65
2022/08/02 01:49:13;;;;;;;10.15;4.82;;;;;;;;;;5040568;28;20029;-65
2022/08/02 01:54:28;;;;;;;13.25;5.40;;;;;;;;;;5042876;28;20047;-64
2022/08/02 01:56:55;;;;;;;9.45;5.57;;;;;;;;;;5032589;28;20107;-65
2022/08/02 01:59:22;;;;;;;10.48;5.47;;;;;;;;;;5050930;28;20033;-65
2022/08/02 02:01:50;;;;;;;9.25;5.07;;;;;;;;;;5050869;28;20075;-65
2022/08/02 02:04:16;;;;;;;9.63;4.95;;;;;;;;;;5049813;28;20039;-65
2022/08/02 02:06:44;;;;;;;9.32;5.40;;;;;;;;;;5035527;28;20465;-65
2022/08/02 02:09:13;;;;;;;8.70;4.85;;;;;;;;;;5031598;28;20154;-65
2022/08/02 02:11:41;;;;;;;10.52;5.25;;;;;;;;;;5032040;28;20025;-64
2022/08/02 02:14:10;;;;;;;12.52;4.82;;;;;;;;;;5033319;28;20108;-64
2022/08/02 02:16:36;;;;;;;9.60;5.07;;;;;;;;;;5050871;28;20120;-65
2022/08/02 02:19:03;;;;;;;10.07;4.97;;;;;;;;;;5042335;28;20033;-65
2022/08/02 02:21:29;;;;;;;8.65;5.15;;;;;;;;;;5047247;28;20033;-65
2022/08/02 02:23:55;;;;;;;9.95;5.28;;;;;;;;;;5048429;28;20041;-64
2022/08/02 02:26:22;;;;;;;8.93;5.32;;;;;;;;;;5051116;28;20075;-64
2022/08/02 02:28:50;;;;;;;8.93;5.20;;;;;;;;;;5046778;28;20032;-65
2022/08/02 02:31:18;;;;;;;9.30;5.05;;;;;;;;;;5031229;28;20026;-64
2022/08/02 02:33:55;;;;;;;9.20;5.32;;;;;;;;;;5029996;28;20082;-65
2022/08/02 02:36:22;;;;;;;9.52;5.15;;;;;;;;;;5051179;28;20033;-65
2022/08/02 02:38:50;;;;;;;10.15;5.10;;;;;;;;;;5038843;28;20044;-66
2022/08/02 02:41:17;;;;;;;7.88;4.82;;;;;;;;;;5036607;28;20029;-65
2022/08/02 02:43:44;;;;;;;12.07;5.20;;;;;;;;;;5034303;28;20504;-65
2022/08/02 02:46:11;;;;;;;12.77;5.47;;;;;;;;;;5047741;28;20115;-65
2022/08/02 02:48:37;;;;;;;9.32;4.97;;;;;;;;;;5052281;28;20029;-65
2022/08/02 02:51:04;;;;;;;9.65;5.35;;;;;;;;;;5055249;28;20024;-65
2022/08/02 02:53:30;;;;;;;7.82;5.22;;;;;;;;;;5038898;28;20033;-64
2022/08/02 02:55:56;;;;;;;9.20;5.85;;;;;;;;;;5038872;28;20067;-64
2022/08/02 02:58:22;;;;;;;8.82;5.75;;;;;;;;;;5036062;28;20382;-64
2022/08/02 03:03:33;;;;;;;10.93;5.85;;;;;;;;;;5054837;28;20098;-64
2022/08/02 03:05:59;;;;;;;9.90;5.47;;;;;;;;;;5036708;28;20022;-64
2022/08/02 03:08:24;;;;;;;10.20;5.95;;;;;;;;;;5040733;28;20047;-64
2022/08/02 03:10:49;;;;;;;10.57;6.00;;;;;;;;;;5044876;28;20040;-64
2022/08/02 03:13:17;;;;;;;13.65;6.57;;;;;;;;;;5036612;28;20116;-64
2022/08/02 03:15:44;;;;;;;10.30;6.07;;;;;;;;;;5050146;28;20029;-64
2022/08/02 03:18:09;;;;;;;13.20;6.75;;;;;;;;;;5052693;28;20040;-65
2022/08/02 03:20:35;;;;;;;10.95;6.20;;;;;;;;;;5054418;28;20029;-64
2022/08/02 03:23:00;;;;;;;11.82;6.45;;;;;;;;;;5053372;28;20123;-64
2022/08/02 03:25:26;;;;;;;10.05;6.72;;;;;;;;;;5052865;28;20028;-65
2022/08/02 03:27:51;;;;;;;10.15;6.75;;;;;;;;;;5044359;28;20025;-66
2022/08/02 03:30:17;;;;;;;11.30;6.68;;;;;;;;;;5033599;28;20040;-65
2022/08/02 03:32:45;;;;;;;9.77;6.38;;;;;;;;;;5034508;28;20411;-66
2022/08/02 03:35:14;;;;;;;11.38;6.97;;;;;;;;;;5032103;28;20470;-65
2022/08/02 03:37:40;;;;;;;11.02;6.40;;;;;;;;;;5046805;28;20025;-65
2022/08/02 03:40:08;;;;;;;10.48;6.43;;;;;;;;;;5032259;28;20029;-64
2022/08/02 03:42:33;;;;;;;11.85;6.32;;;;;;;;;;5035634;28;20509;-64
2022/08/02 03:45:01;;;;;;;12.20;6.43;;;;;;;;;;5051627;28;20037;-64
2022/08/02 03:47:27;;;;;;;8.57;6.25;;;;;;;;;;5051877;28;20481;-65
2022/08/02 03:49:54;;;;;;;12.55;6.80;;;;;;;;;;5050116;28;20021;-64
2022/08/02 03:52:21;;;;;;;13.70;7.13;;;;;;;;;;5033870;28;20033;-65
2022/08/02 03:54:47;;;;;;;10.63;6.93;;;;;;;;;;5032909;28;20030;-66
2022/08/02 03:57:13;;;;;;;14.93;7.30;;;;;;;;;;5051414;28;20044;-66
2022/08/02 03:59:44;;;;;;;18.63;8.27;;;;;;;;;;5045563;28;20037;-66
2022/08/02 04:02:10;;;;;;;16.48;8.70;;;;;;;;;;5043674;28;20038;-64
2022/08/02 04:04:36;;;;;;;15.93;8.40;;;;;;;;;;5038810;28;20503;-64
2022/08/02 04:07:02;;;;;;;15.75;8.52;;;;;;;;;;5034157;28;20064;-64
2022/08/02 04:09:27;;;;;;;12.55;8.10;;;;;;;;;;5052199;28;20041;-64
2022/08/02 04:11:53;;;;;;;13.05;8.18;;;;;;;;;;5036530;28;20039;-64
2022/08/02 04:14:19;;;;;;;10.77;7.25;;;;;;;;;;5033083;28;20083;-65
2022/08/02 04:16:49;;;;;;;15.50;8.75;;;;;;;;;;5032925;28;20036;-65
2022/08/02 04:19:28;;;;;;;12.70;7.78;;;;;;;;;;5032671;28;20034;-64
2022/08/02 04:21:56;;;;;;;14.77;8.38;;;;;;;;;;5052121;28;20033;-64
2022/08/02 04:24:26;;;;;;;12.35;6.85;;;;;;;;;;5033629;28;20045;-64
2022/08/02 04:26:54;;;;;;;13.52;7.22;;;;;;;;;;5032856;28;20037;-64
2022/08/02 04:29:21;;;;;;;11.70;7.13;;;;;;;;;;5049755;28;20492;-64
2022/08/02 04:31:47;;;;;;;12.48;7.53;;;;;;;;;;5035297;28;20033;-66
2022/08/02 04:34:13;;;;;;;12.77;7.55;;;;;;;;;;5039347;28;20053;-64
2022/08/02 04:36:39;;;;;;;14.68;7.75;;;;;;;;;;5051553;28;20075;-65
2022/08/02 04:39:05;;;;;;;12.45;7.20;;;;;;;;;;5045877;28;20041;-65
2022/08/02 04:41:41;;;;;;;10.90;7.25;;;;;;;;;;5033449;28;20052;-65
2022/08/02 04:44:07;;;;;;;13.10;7.70;;;;;;;;;;5038661;28;20112;-65
2022/08/02 04:46:37;;;;;;;13.77;7.25;;;;;;;;;;5053331;28;20064;-65
2022/08/02 04:49:02;;;;;;;10.98;7.30;;;;;;;;;;5045265;28;20073;-64
2022/08/02 04:51:27;;;;;;;10.55;7.18;;;;;;;;;;5040956;28;20040;-64
2022/08/02 04:53:53;;;;;;;11.98;7.40;;;;;;;;;;5034039;28;20055;-65
2022/08/02 04:56:18;;;;;;;16.20;7.97;;;;;;;;;;5046112;28;20041;-65
2022/08/02 04:58:44;;;;;;;11.27;7.45;;;;;;;;;;5038366;28;20088;-67
2022/08/02 05:01:09;;;;;;;11.50;7.70;;;;;;;;;;5041955;28;20090;-65
2022/08/02 05:03:35;;;;;;;14.57;8.63;;;;;;;;;;5040079;28;20033;-65
2022/08/02 05:06:00;;;;;;;12.88;8.25;;;;;;;;;;5042332;28;20211;-62
2022/08/02 05:08:26;;;;;;;17.63;8.98;;;;;;;;;;5044588;28;20036;-67
2022/08/02 05:10:51;;;;;;;17.08;8.68;;;;;;;;;;5049654;28;20104;-66
2022/08/02 05:13:17;;;;;;;12.60;9.13;;;;;;;;;;5049495;28;20029;-68
2022/08/02 05:15:42;;;;;;;17.00;8.82;;;;;;;;;;5039065;28;20049;-66
2022/08/02 05:18:08;;;;;;;15.32;9.55;;;;;;;;;;5047772;28;20029;-65
2022/08/02 05:20:33;;;;;;;12.65;9.05;;;;;;;;;;5051498;28;20112;-66
2022/08/02 05:22:58;;;;;;;14.52;9.65;;;;;;;;;;5038569;28;20030;-65
2022/08/02 05:25:24;;;;;;;14.40;9.95;;;;;;;;;;5033671;28;20041;-66
2022/08/02 05:27:49;;;;;;;13.90;9.38;;;;;;;;;;5040640;28;20036;-63
2022/08/02 05:30:15;;;;;;;17.02;9.82;;;;;;;;;;5040868;28;20383;-68
2022/08/02 05:32:45;;;;;;;16.92;9.00;;;;;;;;;;5034397;28;20087;-69
2022/08/02 05:35:10;;;;;;;13.50;8.97;;;;;;;;;;5032285;28;20060;-70
2022/08/02 05:37:36;;;;;;;10.52;8.85;;;;;;;;;;5036197;28;20767;-70
2022/08/02 05:40:01;;;;;;;12.85;9.02;;;;;;;;;;5042378;28;20104;-69
2022/08/02 05:42:30;;;;;;;15.50;9.00;;;;;;;;;;5034751;28;20116;-68
2022/08/02 05:44:56;;;;;;;13.48;8.48;;;;;;;;;;5030855;28;20066;-69
2022/08/02 05:47:23;;;;;;;14.00;8.85;;;;;;;;;;5033461;28;20033;-69
2022/08/02 05:49:48;;;;;;;13.38;8.60;;;;;;;;;;5030710;28;20029;-69
2022/08/02 05:52:16;;;;;;;14.57;8.40;;;;;;;;;;5033515;28;20087;-66
2022/08/02 05:54:53;;;;;;;13.38;8.80;;;;;;;;;;5051240;28;20039;-68
2022/08/02 05:57:52;;;;;;;14.25;9.52;;;;;;;;;;5031954;28;20041;-67
2022/08/02 06:00:18;;;;;;;12.65;9.07;;;;;;;;;;5024363;28;20045;-67
2022/08/02 06:02:49;;;;;;;14.68;8.88;;;;;;;;;;5033458;28;20037;-67
2022/08/02 06:05:26;;;;;;;13.25;9.02;;;;;;;;;;5045728;28;20060;-65
2022/08/02 06:07:56;;;;;;;11.93;8.55;;;;;;;;;;5036503;28;20029;-67
2022/08/02 06:10:25;;;;;;;24.83;9.48;;;;;;;;;;5031615;28;20052;-67
2022/08/02 06:13:02;;;;;;;15.50;8.38;;;;;;;;;;5042560;28;20440;-68
2022/08/02 06:15:27;;;;;;;17.38;8.88;;;;;;;;;;5048727;28;20035;-67
2022/08/02 06:17:53;;;;;;;12.93;8.35;;;;;;;;;;5036314;28;20029;-67
2022/08/02 06:20:19;;;;;;;14.05;8.15;;;;;;;;;;5031050;28;20037;-67
2022/08/02 06:22:45;;;;;;;15.02;8.55;;;;;;;;;;5031315;28;20041;-68
2022/08/02 06:25:12;;;;;;;12.85;7.82;;;;;;;;;;5033627;28;20089;-66
2022/08/02 06:27:40;;;;;;;15.40;7.82;;;;;;;;;;5031179;28;20108;-69
2022/08/02 06:30:09;;;;;;;13.32;7.68;;;;;;;;;;5040769;28;20052;-68
2022/08/02 06:32:35;;;;;;;13.13;8.00;;;;;;;;;;5033363;28;20033;-67
2022/08/02 06:35:02;;;;;;;12.90;7.68;;;;;;;;;;5035374;28;20128;-65
2022/08/02 06:37:46;;;;;;;12.90;7.30;;;;;;;;;;5050856;28;20473;-70
2022/08/02 06:40:27;;;;;;;13.75;7.88;;;;;;;;;;5040814;28;20531;-63
2022/08/02 06:43:09;;;;;;;13.38;8.10;;;;;;;;;;5044112;28;20107;-67
2022/08/02 06:45:35;;;;;;;14.20;7.90;;;;;;;;;;5044248;28;20033;-66
2022/08/02 06:48:01;;;;;;;12.90;7.30;;;;;;;;;;5032489;28;20033;-67
2022/08/02 06:50:26;;;;;;;13.48;7.63;;;;;;;;;;5032571;28;20032;-67
2022/08/02 06:52:52;;;;;;;13.10;7.07;;;;;;;;;;5039364;28;20159;-67
2022/08/02 06:55:18;;;;;;;11.52;7.55;;;;;;;;;;5041281;28;20122;-67
2022/08/02 06:57:43;;;;;;;13.25;7.22;;;;;;;;;;5049528;28;20045;-66
2022/08/02 07:00:09;;;;;;;11.35;7.13;;;;;;;;;;5037376;28;20131;-67
2022/08/02 07:02:35;;;;;;;13.63;6.97;;;;;;;;;;5029918;28;20128;-68
2022/08/02 07:05:01;;;;;;;18.40;7.78;;;;;;;;;;5035751;28;20159;-67
2022/08/02 07:07:27;;;;;;;14.10;7.50;;;;;;;;;;5046538;28;20537;-65
2022/08/02 07:09:53;;;;;;;12.60;7.50;;;;;;;;;;5041649;28;20068;-67
2022/08/02 07:12:18;;;;;;;13.38;7.20;;;;;;;;;;5030341;28;20091;-68
2022/08/02 07:14:44;;;;;;;11.15;6.90;;;;;;;;;;5037503;28;20064;-68
2022/08/02 07:17:10;;;;;;;11.48;7.38;;;;;;;;;;5034997;28;20029;-69
2022/08/02 07:19:35;;;;;;;15.20;7.07;;;;;;;;;;5035473;28;20427;-69
2022/08/02 07:22:00;;;;;;;14.75;7.13;;;;;;;;;;5029256;28;20037;-67
2022/08/02 07:24:26;;;;;;;11.77;7.13;;;;;;;;;;5030938;28;20029;-68
2022/08/02 07:26:51;;;;;;;14.10;7.00;;;;;;;;;;5012173;28;20026;-70
2022/08/02 07:29:17;;;;;;;15.77;6.60;;;;;;;;;;5040569;28;20033;-69
2022/08/02 07:31:42;;;;;;;13.68;6.43;;;;;;;;;;5052841;28;20059;-67
2022/08/02 07:34:08;;;;;;;10.57;6.20;;;;;;;;;;5050370;28;20134;-68
2022/08/02 07:36:33;;;;;;;12.48;5.88;;;;;;;;;;5035839;28;20029;-67
2022/08/02 07:38:59;;;;;;;9.35;5.43;;;;;;;;;;5033484;28;20036;-67
2022/08/02 07:41:24;;;;;;;10.75;5.68;;;;;;;;;;5036227;28;20044;-69
2022/08/02 07:43:50;;;;;;;10.18;4.93;;;;;;;;;;5033348;28;20466;-69
2022/08/02 07:46:15;;;;;;;7.95;4.50;;;;;;;;;;5035842;28;20025;-68
2022/08/02 07:48:41;;;;;;;7.18;4.40;;;;;;;;;;5033491;28;20358;-68
2022/08/02 07:51:06;;;;;;;9.57;3.97;;;;;;;;;;5033674;28;20028;-68
2022/08/02 07:53:32;;;;;;;8.57;3.88;;;;;;;;;;5037179;28;20053;-67
2022/08/02 07:55:57;;;;;;;7.97;3.70;;;;;;;;;;5039280;28;20054;-65
2022/08/02 07:58:23;;;;;;;5.60;3.28;;;;;;;;;;5033976;28;20021;-67
2022/08/02 08:00:48;;;;;;;8.63;3.60;;;;;;;;;;5041245;28;20036;-67
2022/08/02 08:03:14;;;;;;;5.85;3.40;;;;;;;;;;5041510;28;20039;-68
2022/08/02 08:05:39;;;;;;;6.18;3.10;;;;;;;;;;5033424;28;20032;-67
2022/08/02 08:08:05;;;;;;;7.38;3.10;;;;;;;;;;5032712;28;20045;-68
2022/08/02 08:10:31;;;;;;;6.35;3.10;;;;;;;;;;5033564;28;20459;-67
2022/08/02 08:12:56;;;;;;;6.45;2.60;;;;;;;;;;5032251;28;20037;-68
2022/08/02 08:15:22;;;;;;;3.60;2.60;;;;;;;;;;5032320;28;20071;-67
2022/08/02 08:17:47;;;;;;;6.38;2.80;;;;;;;;;;5032322;28;20028;-67
2022/08/02 08:20:12;;;;;;;7.70;3.20;;;;;;;;;;5034051;28;20084;-70
2022/08/02 08:22:38;;;;;;;4.18;2.50;;;;;;;;;;5046973;28;20398;-70
2022/08/02 08:25:04;;;;;;;6.18;2.30;;;;;;;;;;5032712;28;20021;-68
2022/08/02 08:27:29;;;;;;;7.20;2.53;;;;;;;;;;5035548;28;20367;-69
2022/08/02 08:29:55;;;;;;;7.78;2.85;;;;;;;;;;5038735;28;20056;-70
2022/08/02 08:32:20;;;;;;;7.95;2.88;;;;;;;;;;5041352;28;20037;-67
2022/08/02 08:34:46;;;;;;;6.30;2.60;;;;;;;;;;5032124;28;20457;-69
2022/08/02 08:37:12;;;;;;;4.18;2.35;;;;;;;;;;5038820;28;20151;-65
2022/08/02 08:39:38;;;;;;;5.60;2.55;;;;;;;;;;5045417;28;20041;-68
2022/08/02 08:42:07;;;;;;;6.43;2.65;;;;;;;;;;5032898;28;20100;-69
2022/08/02 08:44:34;;;;;;;5.55;2.75;;;;;;;;;;5034648;28;20030;-69
2022/08/02 08:47:02;;;;;;;5.63;2.70;;;;;;;;;;5031574;28;20041;-70
2022/08/02 08:49:31;;;;;;;4.47;2.88;;;;;;;;;;5015079;28;20482;-71
2022/08/02 08:52:03;;;;;;;5.03;2.40;;;;;;;;;;5031448;28;20033;-66
2022/08/02 08:54:30;;;;;;;6.10;2.42;;;;;;;;;;5034041;28;20424;-68
2022/08/02 08:56:56;;;;;;;5.75;2.47;;;;;;;;;;5033337;28;20073;-67
2022/08/02 08:59:22;;;;;;;5.72;2.40;;;;;;;;;;5048670;28;20405;-70
2022/08/02 09:01:49;;;;;;;4.10;2.28;;;;;;;;;;5012511;28;20025;-66
2022/08/02 09:04:15;;;;;;;3.95;2.30;;;;;;;;;;5052587;28;20036;-64
2022/08/02 09:06:41;;;;;;;4.40;2.30;;;;;;;;;;5051626;28;20104;-63
2022/08/02 09:09:06;;;;;;;5.68;2.38;;;;;;;;;;5051847;28;20048;-66
2022/08/02 09:11:32;;;;;;;3.28;2.25;;;;;;;;;;5045371;28;20028;-65
2022/08/02 09:13:59;;;;;;;5.72;2.35;;;;;;;;;;5034371;28;20534;-63
2022/08/02 09:16:30;;;;;;;8.15;2.30;;;;;;;;;;5030934;28;20130;-65
2022/08/02 09:18:56;;;;;;;3.85;2.22;;;;;;;;;;5033316;28;20385;-69
2022/08/02 09:21:22;;;;;;;4.65;2.45;;;;;;;;;;5050405;28;20035;-67
2022/08/02 09:23:51;;;;;;;4.75;2.50;;;;;;;;;;5048180;28;20481;-66
2022/08/02 09:26:20;;;;;;;5.77;2.57;;;;;;;;;;5038832;28;20029;-66
2022/08/02 09:29:01;;;;;;;4.95;2.35;;;;;;;;;;5041073;28;20558;-68
2022/08/02 09:31:26;;;;;;;5.15;2.50;;;;;;;;;;5050319;28;20017;-67
2022/08/02 09:33:54;;;;;;;6.05;2.53;;;;;;;;;;5050077;28;20106;-69
2022/08/02 09:36:20;;;;;;;3.55;2.38;;;;;;;;;;5041674;28;20033;-66
2022/08/02 09:39:04;;;;;;;4.00;2.30;;;;;;;;;;5031046;28;20029;-67
2022/08/02 09:41:31;;;;;;;4.05;2.40;;;;;;;;;;5029900;28;20446;-65
2022/08/02 09:43:58;;;;;;;3.70;2.30;;;;;;;;;;5049332;28;20029;-66
2022/08/02 09:46:30;;;;;;;4.75;2.58;;;;;;;;;;5027652;28;20119;-64
2022/08/02 09:49:00;;;;;;;6.40;2.67;;;;;;;;;;5036643;28;20425;-64
2022/08/02 09:51:28;;;;;;;4.05;2.67;;;;;;;;;;5013543;28;20029;-65
2022/08/02 09:54:01;;;;;;;5.75;2.67;;;;;;;;;;5042113;28;20112;-66
2022/08/02 09:56:37;;;;;;;4.60;3.10;;;;;;;;;;5048255;28;20049;-66
2022/08/02 09:59:05;;;;;;;7.10;2.75;;;;;;;;;;5047788;28;20033;-66
2022/08/02 10:01:31;;;;;;;5.18;2.55;;;;;;;;;;5048643;28;20029;-66
2022/08/02 10:04:00;;;;;;;7.47;3.05;;;;;;;;;;5049496;28;20032;-65
2022/08/02 10:06:26;;;;;;;5.00;3.05;;;;;;;;;;5049500;28;20035;-65
2022/08/02 10:08:52;;;;;;;6.82;2.63;;;;;;;;;;5048149;28;20480;-65
2022/08/02 10:11:19;;;;;;;5.95;3.00;;;;;;;;;;5015171;28;20041;-67
2022/08/02 10:13:45;;;;;;;5.03;3.17;;;;;;;;;;5030731;28;20437;-67
2022/08/02 10:16:11;;;;;;;4.78;3.40;;;;;;;;;;5047787;28;20030;-64
2022/08/02 10:18:36;;;;;;;6.30;3.20;;;;;;;;;;5031840;28;20382;-65
2022/08/02 10:21:05;;;;;;;4.85;3.17;;;;;;;;;;5033092;28;20052;-65
2022/08/02 10:23:34;;;;;;;5.00;3.28;;;;;;;;;;5013600;28;20037;-66
2022/08/02 10:26:02;;;;;;;5.90;3.10;;;;;;;;;;5032925;28;20053;-66
2022/08/02 10:28:37;;;;;;;5.07;3.28;;;;;;;;;;5030673;28;20037;-75
2022/08/02 10:31:05;;;;;;;7.22;3.17;;;;;;;;;;5030850;28;20021;-71
2022/08/02 10:33:35;;;;;;;4.80;3.60;;;;;;;;;;5030501;28;20059;-75
2022/08/02 10:36:01;;;;;;;8.25;3.33;;;;;;;;;;5033571;28;20068;-78
2022/08/02 10:38:27;;;;;;;5.93;3.28;;;;;;;;;;5049070;28;20120;-76
2022/08/02 10:40:54;;;;;;;5.38;3.63;;;;;;;;;;5023218;28;20179;-77
2022/08/02 10:43:35;;;;;;;6.20;3.67;;;;;;;;;;5039355;28;20482;-74
2022/08/02 10:46:20;;;;;;;6.28;3.65;;;;;;;;;;5042692;28;20042;-73
2022/08/02 10:49:06;;;;;;;4.13;3.20;;;;;;;;;;5029908;28;20039;-75
2022/08/02 10:51:54;;;;;;;5.75;3.45;;;;;;;;;;5030979;28;20466;-77
2022/08/02 10:54:55;;;;;;;7.22;3.80;;;;;;;;;;5037764;28;20041;-74
2022/08/02 10:57:26;;;;;;;6.43;3.92;;;;;;;;;;5031008;28;20211;-78
2022/08/02 10:59:55;;;;;;;7.75;4.10;;;;;;;;;;5032412;28;20045;-78
2022/08/02 11:02:34;;;;;;;6.38;3.70;;;;;;;;;;5032159;28;20053;-71
2022/08/02 11:05:11;;;;;;;6.65;3.67;;;;;;;;;;5046910;28;20021;-65
2022/08/02 11:07:40;;;;;;;6.68;3.60;;;;;;;;;;5050250;28;20044;-67
2022/08/02 11:10:38;;;;;;;4.57;3.55;;;;;;;;;;5047098;28;20033;-67
2022/08/02 11:13:21;;;;;;;5.25;3.80;;;;;;;;;;5033787;28;20068;-66
2022/08/02 11:16:03;;;;;;;6.25;4.20;;;;;;;;;;5035079;28;20075;-65
2022/08/02 11:18:50;;;;;;;6.97;3.90;;;;;;;;;;5047444;28;20041;-66
2022/08/02 11:21:27;;;;;;;7.40;3.90;;;;;;;;;;5038170;28;20036;-64
2022/08/02 11:23:52;;;;;;;6.07;3.78;;;;;;;;;;5040067;28;20100;-67
2022/08/02 11:26:30;;;;;;;5.00;3.65;;;;;;;;;;5041180;28;20163;-66
2022/08/02 11:29:01;;;;;;;6.43;3.53;;;;;;;;;;5048089;28;20489;-66
2022/08/02 11:31:28;;;;;;;6.03;3.63;;;;;;;;;;5054294;28;20094;-66
2022/08/02 11:33:54;;;;;;;5.60;3.40;;;;;;;;;;5040793;28;20026;-66
2022/08/02 11:36:19;;;;;;;6.95;3.58;;;;;;;;;;5034232;28;20417;-65
2022/08/02 11:38:45;;;;;;;6.28;3.33;;;;;;;;;;5032950;28;20386;-68
2022/08/02 11:41:22;;;;;;;7.30;3.90;;;;;;;;;;5034810;28;20513;-64
2022/08/02 11:43:54;;;;;;;8.75;3.47;;;;;;;;;;5039860;28;20401;-65
2022/08/02 11:46:19;;;;;;;8.07;3.42;;;;;;;;;;5034345;28;20034;-64
2022/08/02 11:48:45;;;;;;;5.78;3.65;;;;;;;;;;5041496;28;20041;-67
2022/08/02 11:51:17;;;;;;;6.40;3.60;;;;;;;;;;5052572;28;20053;-64
2022/08/02 11:53:51;;;;;;;6.68;3.45;;;;;;;;;;5031129;28;20466;-67
2022/08/02 11:56:33;;;;;;;6.32;3.03;;;;;;;;;;5038588;28;20041;-66
2022/08/02 11:59:09;;;;;;;7.20;3.20;;;;;;;;;;5048952;28;20040;-66
2022/08/02 12:01:37;;;;;;;8.85;2.78;;;;;;;;;;5043340;28;20033;-65
2022/08/02 12:04:05;;;;;;;6.53;2.70;;;;;;;;;;5042604;28;20036;-65
2022/08/02 12:06:32;;;;;;;4.57;2.85;;;;;;;;;;5053608;28;20041;-64
2022/08/02 12:09:09;;;;;;;7.45;3.00;;;;;;;;;;5050963;28;20033;-66
2022/08/02 12:11:38;;;;;;;3.83;2.80;;;;;;;;;;5048449;28;20036;-65
2022/08/02 12:14:04;;;;;;;4.45;2.75;;;;;;;;;;5050533;28;20588;-67
2022/08/02 12:19:25;;;;;;;5.97;2.70;;;;;;;;;;5033563;28;20115;-64
2022/08/02 12:22:09;;;;;;;6.32;2.60;;;;;;;;;;5049514;28;20037;-67
2022/08/02 12:24:36;;;;;;;6.00;2.67;;;;;;;;;;5046220;28;20037;-68
2022/08/02 12:27:01;;;;;;;3.78;2.70;;;;;;;;;;5032716;28;20115;-68
2022/08/02 12:29:53;;;;;;;4.90;2.60;;;;;;;;;;5050054;28;20044;-67
2022/08/02 12:32:23;;;;;;;4.00;2.50;;;;;;;;;;5039640;28;20041;-68
2022/08/02 12:35:09;;;;;;;3.88;2.60;;;;;;;;;;5040057;28;20033;-68
2022/08/02 12:37:37;;;;;;;3.97;2.60;;;;;;;;;;5041059;28;20037;-67
2022/08/02 12:40:25;;;;;;;3.33;2.38;;;;;;;;;;5033630;28;20076;-65
2022/08/02 12:43:04;;;;;;;6.20;2.40;;;;;;;;;;5032333;28;20260;-66
2022/08/02 12:45:32;;;;;;;3.45;2.50;;;;;;;;;;5030968;28;20057;-68
2022/08/02 12:48:00;;;;;;;9.02;2.58;;;;;;;;;;5048402;28;20477;-67
2022/08/02 12:50:25;;;;;;;5.57;2.53;;;;;;;;;;5047092;28;20033;-65
2022/08/02 12:53:03;;;;;;;3.95;2.30;;;;;;;;;;5051298;28;20385;-67
2022/08/02 12:55:29;;;;;;;6.80;2.35;;;;;;;;;;5026299;28;20129;-67
2022/08/02 12:57:59;;;;;;;3.88;2.20;;;;;;;;;;5043819;28;20116;-67
2022/08/02 13:00:30;;;;;;;3.95;2.45;;;;;;;;;;5032497;28;22129;-66
2022/08/02 13:02:57;;;;;;;4.60;2.90;;;;;;;;;;5047237;28;20037;-67
2022/08/02 13:05:23;;;;;;;7.55;2.53;;;;;;;;;;5024580;28;20037;-67
2022/08/02 13:07:49;;;;;;;8.13;2.50;;;;;;;;;;5046409;28;20036;-66
2022/08/02 13:10:15;;;;;;;7.28;2.50;;;;;;;;;;5028789;28;20033;-67
2022/08/02 13:12:41;;;;;;;3.90;2.22;;;;;;;;;;5052741;28;20082;-66
2022/08/02 13:15:07;;;;;;;4.78;2.50;;;;;;;;;;5043080;28;20048;-65
2022/08/02 13:17:33;;;;;;;5.80;2.50;;;;;;;;;;5032102;28;20034;-66
2022/08/02 13:19:58;;;;;;;6.57;2.90;;;;;;;;;;5038226;28;20044;-66
2022/08/02 13:22:24;;;;;;;4.22;2.58;;;;;;;;;;5052161;28;20060;-66
2022/08/02 13:24:50;;;;;;;6.13;2.70;;;;;;;;;;5042957;28;20043;-68
2022/08/02 13:27:17;;;;;;;3.63;2.50;;;;;;;;;;5050632;28;20104;-65
2022/08/02 13:29:42;;;;;;;3.35;2.28;;;;;;;;;;5038385;28;20068;-64
2022/08/02 13:32:08;;;;;;;6.25;2.35;;;;;;;;;;5031981;28;20026;-66
2022/08/02 13:34:33;;;;;;;5.78;2.50;;;;;;;;;;5031648;28;20025;-64
2022/08/02 13:36:59;;;;;;;3.65;2.33;;;;;;;;;;5037614;28;20087;-67
2022/08/02 13:39:24;;;;;;;3.35;2.28;;;;;;;;;;5049194;28;20029;-66
2022/08/02 13:41:50;;;;;;;4.35;2.30;;;;;;;;;;5050651;28;20100;-67
2022/08/02 13:44:15;;;;;;;4.05;2.40;;;;;;;;;;5046294;28;20038;-66
2022/08/02 13:46:40;;;;;;;3.03;2.40;;;;;;;;;;5051683;28;20037;-67
2022/08/02 13:49:06;;;;;;;4.95;2.80;;;;;;;;;;5027869;28;20033;-66
2022/08/02 13:51:31;;;;;;;3.65;2.22;;;;;;;;;;5050797;28;20037;-68
2022/08/02 13:53:57;;;;;;;4.30;2.40;;;;;;;;;;5046685;28;20036;-66
2022/08/02 13:56:22;;;;;;;4.10;2.50;;;;;;;;;;5032118;28;20110;-66
2022/08/02 13:58:48;;;;;;;3.58;2.50;;;;;;;;;;5032378;28;20033;-67
2022/08/02 14:01:13;;;;;;;3.42;2.40;;;;;;;;;;5042572;28;20032;-66
2022/08/02 14:03:38;;;;;;;5.40;2.50;;;;;;;;;;5049696;28;20469;-66
2022/08/02 14:06:05;;;;;;;5.43;2.40;;;;;;;;;;5049221;28;20035;-67
2022/08/02 14:08:31;;;;;;;4.35;2.53;;;;;;;;;;5033188;28;20052;-67
2022/08/02 14:10:57;;;;;;;4.30;2.55;;;;;;;;;;5030348;28;20034;-67
2022/08/02 14:13:23;;;;;;;4.80;2.47;;;;;;;;;;5040227;28;20041;-66
2022/08/02 14:15:49;;;;;;;4.40;2.50;;;;;;;;;;5036308;28;20128;-67
2022/08/02 14:18:15;;;;;;;5.43;2.45;;;;;;;;;;5043779;28;20047;-65
2022/08/02 14:20:41;;;;;;;5.70;2.40;;;;;;;;;;5031931;28;20159;-64
2022/08/02 14:23:07;;;;;;;4.65;2.42;;;;;;;;;;5038659;28;20462;-64
2022/08/02 14:25:32;;;;;;;5.60;2.50;;;;;;;;;;5039970;28;20040;-70
2022/08/02 14:27:58;;;;;;;5.30;2.40;;;;;;;;;;5048844;28;20045;-69
2022/08/02 14:30:23;;;;;;;5.05;2.40;;;;;;;;;;5050999;28;20032;-68
2022/08/02 14:32:49;;;;;;;6.45;2.40;;;;;;;;;;5044837;28;20025;-69
2022/08/02 14:35:15;;;;;;;5.05;2.40;;;;;;;;;;5042286;28;20033;-69
2022/08/02 14:37:40;;;;;;;6.07;2.33;;;;;;;;;;5050743;28;20094;-69
2022/08/02 14:40:06;;;;;;;4.57;2.58;;;;;;;;;;5050570;28;20158;-69
2022/08/02 14:42:32;;;;;;;3.42;2.30;;;;;;;;;;5037961;28;20034;-69
2022/08/02 14:44:57;;;;;;;3.78;2.30;;;;;;;;;;5030854;28;20038;-68
2022/08/02 14:47:22;;;;;;;3.55;2.30;;;;;;;;;;5033327;28;20037;-69
2022/08/02 14:49:48;;;;;;;4.22;2.20;;;;;;;;;;5028419;28;20084;-68
2022/08/02 14:52:13;;;;;;;4.50;2.25;;;;;;;;;;5031243;28;20421;-69
2022/08/02 14:54:41;;;;;;;3.85;2.30;;;;;;;;;;5031490;28;20493;-68